Time;durP1;ratioP1;P1;durP2;ratioP2;P2;SDS_P1;SDS_P2;PMS_P1;PMS_P2;Temp;Humidity;BMP_temperature;BMP_pressure;BME280_temperature;BME280_humidity;BME280_pressure;Samples;Min_cycle;Max_cycle;Signal;HPM_P1;HPM_P2
2021/01/29 00:01:55;;;;;;;5.60;2.17;;;0.40;99.90;;;;;;6193896;23;20166;-93
2021/01/29 00:04:22;;;;;;;5.23;2.53;;;0.40;99.90;;;;;;6193785;23;20151;-94
2021/01/29 00:06:49;;;;;;;3.83;1.93;;;0.40;99.90;;;;;;6193853;23;20154;-94
2021/01/29 00:09:21;;;;;;;4.50;2.37;;;0.40;99.90;;;;;;6193417;23;20191;-95
2021/01/29 00:11:48;;;;;;;4.27;2.30;;;0.40;99.90;;;;;;6193659;23;20225;-94
2021/01/29 00:14:15;;;;;;;6.57;2.50;;;0.40;99.90;;;;;;6193016;23;20144;-94
2021/01/29 00:16:41;;;;;;;7.67;2.70;;;0.40;99.90;;;;;;6193128;23;20199;-94
2021/01/29 00:19:08;;;;;;;7.03;2.40;;;0.40;99.90;;;;;;6192789;23;20261;-94
2021/01/29 00:21:35;;;;;;;5.17;2.53;;;0.40;99.90;;;;;;6193485;23;20177;-93
2021/01/29 00:24:02;;;;;;;5.97;2.00;;;0.40;99.90;;;;;;6193479;23;20151;-93
2021/01/29 00:26:27;;;;;;;4.37;2.43;;;0.40;99.90;;;;;;6194368;23;20156;-93
2021/01/29 00:28:54;;;;;;;4.10;2.30;;;0.40;99.90;;;;;;6192866;23;20206;-95
2021/01/29 00:31:20;;;;;;;8.57;2.07;;;0.40;99.90;;;;;;6194016;23;20155;-94
2021/01/29 00:33:45;;;;;;;3.77;2.10;;;0.40;99.90;;;;;;6193959;23;20561;-92
2021/01/29 00:36:11;;;;;;;3.07;2.00;;;0.40;99.90;;;;;;6193589;23;20146;-93
2021/01/29 00:38:38;;;;;;;6.13;2.20;;;0.40;99.90;;;;;;6193296;23;20178;-92
2021/01/29 00:41:04;;;;;;;4.73;2.23;;;0.30;99.90;;;;;;6192777;23;20154;-93
2021/01/29 00:43:30;;;;;;;6.73;2.77;;;0.40;99.90;;;;;;6193416;23;20591;-94
2021/01/29 00:45:57;;;;;;;10.43;2.80;;;0.40;99.90;;;;;;6193536;23;20161;-93
2021/01/29 00:48:23;;;;;;;8.43;2.80;;;0.40;99.90;;;;;;6192593;23;20586;-93
2021/01/29 00:50:49;;;;;;;4.07;2.20;;;0.40;99.90;;;;;;6192616;23;20162;-95
2021/01/29 00:53:15;;;;;;;4.83;2.20;;;0.40;99.90;;;;;;6192544;23;20143;-93
2021/01/29 00:55:40;;;;;;;4.00;1.90;;;0.40;99.90;;;;;;6192751;23;20149;-93
2021/01/29 00:58:07;;;;;;;5.43;2.60;;;0.40;99.90;;;;;;6192337;23;20201;-94
2021/01/29 01:00:33;;;;;;;6.13;2.30;;;0.40;99.90;;;;;;6192378;23;20150;-94
2021/01/29 01:02:59;;;;;;;2.60;1.93;;;0.30;99.90;;;;;;6193134;23;20185;-92
2021/01/29 01:05:26;;;;;;;4.37;2.07;;;0.30;99.90;;;;;;6193009;23;20143;-93
2021/01/29 01:07:52;;;;;;;8.83;2.27;;;0.30;99.90;;;;;;6192809;23;20185;-94
2021/01/29 01:10:20;;;;;;;7.33;2.00;;;0.40;99.90;;;;;;6191891;23;20183;-94
2021/01/29 01:12:45;;;;;;;4.37;2.20;;;0.40;99.90;;;;;;6190495;23;20146;-92
2021/01/29 01:15:22;;;;;;;6.07;2.10;;;0.30;99.90;;;;;;6191327;23;20623;-94
2021/01/29 01:17:48;;;;;;;5.13;1.97;;;0.30;99.90;;;;;;6191955;23;20194;-93
2021/01/29 01:20:17;;;;;;;4.40;1.80;;;0.30;99.90;;;;;;6191831;23;20158;-94
2021/01/29 01:22:43;;;;;;;7.80;1.90;;;0.20;99.90;;;;;;6192243;23;20628;-93
2021/01/29 01:25:09;;;;;;;4.07;1.73;;;0.30;99.90;;;;;;6192126;23;20153;-94
2021/01/29 01:27:38;;;;;;;5.03;1.93;;;0.30;99.90;;;;;;6192887;23;20526;-93
2021/01/29 01:30:08;;;;;;;5.33;2.20;;;0.30;99.90;;;;;;6192138;23;20189;-91
2021/01/29 01:32:34;;;;;;;4.47;1.80;;;0.30;99.90;;;;;;6192364;23;20634;-95
2021/01/29 01:35:02;;;;;;;3.67;1.80;;;0.20;99.90;;;;;;6192874;23;20153;-93
2021/01/29 01:37:30;;;;;;;2.73;1.43;;;0.20;99.90;;;;;;6191879;23;20692;-93
2021/01/29 01:39:57;;;;;;;4.97;1.70;;;0.20;99.90;;;;;;6192245;23;20154;-93
2021/01/29 01:42:23;;;;;;;4.87;2.00;;;0.20;99.90;;;;;;6191298;23;20674;-93
2021/01/29 01:44:50;;;;;;;7.60;2.10;;;0.20;99.90;;;;;;6192786;23;20155;-93
2021/01/29 01:47:24;;;;;;;4.40;1.73;;;0.20;99.90;;;;;;6193402;23;20154;-92
2021/01/29 01:49:54;;;;;;;1.97;1.40;;;0.20;99.90;;;;;;6191054;23;20195;-93
2021/01/29 01:52:35;;;;;;;5.03;1.63;;;0.20;99.90;;;;;;6192349;23;20537;-92
2021/01/29 01:55:13;;;;;;;3.50;1.50;;;0.10;99.90;;;;;;6191872;23;20159;-91
2021/01/29 01:57:40;;;;;;;4.47;1.77;;;0.20;99.90;;;;;;6191695;23;20201;-94
2021/01/29 02:00:16;;;;;;;5.73;1.77;;;0.10;99.90;;;;;;6191788;23;20162;-93
2021/01/29 02:02:46;;;;;;;2.80;1.67;;;0.20;99.90;;;;;;6168233;23;20168;-93
2021/01/29 02:05:25;;;;;;;2.20;2.00;;;0.20;99.90;;;;;;6192230;23;20481;-93
2021/01/29 02:08:18;;;;;;;4.70;1.73;;;0.20;99.90;;;;;;6191150;23;20211;-91
2021/01/29 02:10:45;;;;;;;3.37;1.40;;;0.20;99.90;;;;;;6187979;23;20166;-93
2021/01/29 02:13:11;;;;;;;3.37;1.80;;;0.20;99.90;;;;;;6192611;23;20153;-93
2021/01/29 02:15:46;;;;;;;6.03;1.60;;;0.20;99.90;;;;;;6192458;23;20154;-92
2021/01/29 02:18:23;;;;;;;5.20;1.90;;;0.20;99.90;;;;;;6192362;23;20184;-93
2021/01/29 02:21:01;;;;;;;5.30;1.70;;;0.20;99.90;;;;;;6192560;23;20232;-92
2021/01/29 02:23:39;;;;;;;4.07;1.70;;;0.20;99.90;;;;;;6191945;23;20153;-92
2021/01/29 02:26:19;;;;;;;7.27;1.87;;;0.20;99.90;;;;;;6192261;23;20175;-93
2021/01/29 02:29:03;;;;;;;3.67;1.80;;;0.20;99.90;;;;;;6192113;23;20189;-95
2021/01/29 02:31:38;;;;;;;5.23;2.00;;;0.30;99.90;;;;;;6192134;23;20157;-94
2021/01/29 02:34:26;;;;;;;3.77;1.83;;;0.20;99.90;;;;;;6192649;23;20195;-94
2021/01/29 02:37:07;;;;;;;3.57;1.60;;;0.20;99.90;;;;;;6192314;23;20158;-93
2021/01/29 02:39:51;;;;;;;4.53;1.83;;;0.20;99.90;;;;;;6191712;23;20194;-93
2021/01/29 02:42:38;;;;;;;3.97;1.80;;;0.20;99.90;;;;;;6191252;23;20279;-94
2021/01/29 02:45:32;;;;;;;3.60;1.70;;;0.30;99.90;;;;;;6191548;23;20275;-95
2021/01/29 02:48:15;;;;;;;5.77;2.27;;;0.30;99.90;;;;;;6191422;23;20230;-91
2021/01/29 02:51:11;;;;;;;6.40;1.97;;;0.30;99.90;;;;;;6192440;23;20157;-92
2021/01/29 02:53:54;;;;;;;5.40;1.77;;;0.30;99.90;;;;;;6192714;23;20577;-93
2021/01/29 02:56:29;;;;;;;6.70;2.00;;;0.30;99.90;;;;;;6192277;23;20159;-93
2021/01/29 02:59:23;;;;;;;3.33;2.00;;;0.30;99.90;;;;;;6191467;23;20243;-94
2021/01/29 03:01:56;;;;;;;5.23;2.23;;;0.30;99.90;;;;;;6192059;23;20157;-93
2021/01/29 03:04:32;;;;;;;6.63;2.03;;;0.30;99.90;;;;;;6191326;23;20610;-93
2021/01/29 03:07:10;;;;;;;6.27;2.20;;;0.30;99.90;;;;;;6191673;23;20169;-93
2021/01/29 03:09:42;;;;;;;5.23;2.30;;;0.30;99.90;;;;;;6191262;23;20199;-93
2021/01/29 03:12:17;;;;;;;5.23;2.17;;;0.20;99.90;;;;;;6192451;23;20157;-93
2021/01/29 03:14:59;;;;;;;3.87;2.17;;;0.30;99.90;;;;;;6193979;23;20172;-94
2021/01/29 03:17:35;;;;;;;6.17;2.17;;;0.30;99.90;;;;;;6193863;23;20150;-91
2021/01/29 03:20:14;;;;;;;6.80;2.83;;;0.30;99.90;;;;;;6193427;23;20212;-92
2021/01/29 03:22:52;;;;;;;5.40;2.20;;;0.30;99.90;;;;;;6193461;23;20478;-93
2021/01/29 03:25:33;;;;;;;7.60;2.00;;;0.30;99.90;;;;;;6194232;23;20161;-94
2021/01/29 03:28:07;;;;;;;3.73;2.10;;;0.30;99.90;;;;;;6192899;23;20180;-93
2021/01/29 03:30:37;;;;;;;9.57;2.47;;;0.20;99.90;;;;;;6193642;23;20167;-93
2021/01/29 03:33:08;;;;;;;5.30;2.67;;;0.20;99.90;;;;;;6192789;23;20584;-92
2021/01/29 03:35:46;;;;;;;7.17;2.53;;;0.30;99.90;;;;;;6193923;23;20153;-93
2021/01/29 03:38:33;;;;;;;7.13;2.60;;;0.20;99.90;;;;;;6193534;23;20209;-92
2021/01/29 03:41:13;;;;;;;5.80;2.63;;;0.20;99.90;;;;;;6193238;23;20150;-93
2021/01/29 03:44:15;;;;;;;4.40;2.20;;;0.20;99.90;;;;;;6193990;23;20156;-93
2021/01/29 03:47:03;;;;;;;8.37;2.67;;;0.20;99.90;;;;;;6193180;23;20193;-93
2021/01/29 03:50:07;;;;;;;4.37;2.50;;;0.20;99.90;;;;;;6193014;23;20205;-93
2021/01/29 03:52:55;;;;;;;4.23;2.63;;;0.30;99.90;;;;;;6193357;23;20161;-92
2021/01/29 03:55:41;;;;;;;5.10;2.47;;;0.30;99.90;;;;;;6194040;23;20170;-94
2021/01/29 03:58:10;;;;;;;5.37;2.50;;;0.20;99.90;;;;;;6193785;23;20209;-93
2021/01/29 04:00:59;;;;;;;4.93;2.40;;;0.20;99.90;;;;;;6194064;23;20164;-93
2021/01/29 04:04:01;;;;;;;5.43;2.50;;;0.20;99.90;;;;;;6192833;23;20549;-91
2021/01/29 04:06:33;;;;;;;4.50;2.80;;;0.20;99.90;;;;;;6194170;23;20154;-94
2021/01/29 04:09:02;;;;;;;7.23;2.80;;;0.20;99.90;;;;;;6193274;23;20217;-92
2021/01/29 04:11:47;;;;;;;6.87;2.93;;;0.30;99.90;;;;;;6193208;23;20158;-93
2021/01/29 04:14:21;;;;;;;4.90;2.77;;;0.20;99.90;;;;;;6193453;23;20154;-93
2021/01/29 04:16:48;;;;;;;5.00;2.30;;;0.20;99.90;;;;;;6192940;23;20220;-93
2021/01/29 04:19:23;;;;;;;4.60;2.70;;;0.20;99.90;;;;;;6193376;23;20188;-93
2021/01/29 04:22:00;;;;;;;5.10;2.33;;;0.20;99.90;;;;;;6193293;23;20240;-92
2021/01/29 04:24:42;;;;;;;4.77;2.33;;;0.20;99.90;;;;;;6193494;23;20183;-92
2021/01/29 04:27:19;;;;;;;4.60;2.60;;;0.20;99.90;;;;;;6193063;23;20213;-93
2021/01/29 04:29:57;;;;;;;7.77;2.40;;;0.20;99.90;;;;;;6193162;23;20248;-93
2021/01/29 04:32:29;;;;;;;5.27;2.57;;;0.20;99.90;;;;;;6193122;23;20665;-92
2021/01/29 04:34:58;;;;;;;5.83;2.47;;;0.20;99.90;;;;;;6193796;23;20154;-94
2021/01/29 04:37:30;;;;;;;6.40;2.90;;;0.20;99.90;;;;;;6193659;23;20147;-92
2021/01/29 04:40:06;;;;;;;8.10;2.70;;;0.20;99.90;;;;;;6193881;23;20153;-94
2021/01/29 04:43:31;;;;;;;8.97;2.67;;;0.20;99.90;;;;;;6193027;23;20161;-93
2021/01/29 04:46:27;;;;;;;5.10;2.40;;;0.20;99.90;;;;;;6137700;23;20162;-93
2021/01/29 04:49:00;;;;;;;8.30;2.83;;;0.20;99.90;;;;;;6192720;23;20179;-95
2021/01/29 04:51:48;;;;;;;4.33;2.50;;;0.20;99.90;;;;;;6192930;23;20160;-92
2021/01/29 04:54:26;;;;;;;5.33;2.53;;;0.30;99.90;;;;;;6192791;23;20153;-93
2021/01/29 04:56:59;;;;;;;4.43;2.60;;;0.20;99.90;;;;;;6194071;23;20163;-93
2021/01/29 04:59:45;;;;;;;5.83;2.90;;;0.30;99.90;;;;;;6197759;23;20184;-93
2021/01/29 05:02:16;;;;;;;5.20;2.90;;;0.30;99.90;;;;;;6197871;23;20176;-93
2021/01/29 05:05:25;;;;;;;5.53;2.80;;;0.20;99.90;;;;;;6198263;23;20181;-92
2021/01/29 05:08:28;;;;;;;3.57;2.50;;;0.20;99.90;;;;;;6197882;23;20181;-93
2021/01/29 05:11:19;;;;;;;4.27;2.77;;;0.30;99.90;;;;;;6129834;23;20225;-91
2021/01/29 05:14:12;;;;;;;4.37;2.97;;;0.30;99.90;;;;;;6197521;23;20161;-92
2021/01/29 05:16:58;;;;;;;8.13;3.40;;;0.30;99.90;;;;;;6198308;23;20711;-93
2021/01/29 05:19:51;;;;;;;5.60;3.20;;;0.30;99.90;;;;;;6196786;23;20247;-92
2021/01/29 05:22:32;;;;;;;6.17;3.60;;;0.30;99.90;;;;;;6198189;23;20592;-94
2021/01/29 05:25:24;;;;;;;6.70;3.23;;;0.30;99.90;;;;;;6198496;23;20175;-94
2021/01/29 05:28:07;;;;;;;7.47;3.53;;;0.30;99.90;;;;;;6196639;23;20183;-92
2021/01/29 05:31:02;;;;;;;7.07;3.13;;;0.30;99.90;;;;;;6197116;23;20182;-93
2021/01/29 05:34:14;;;;;;;8.27;3.50;;;0.30;99.90;;;;;;6198080;23;20149;-93
2021/01/29 05:37:17;;;;;;;8.20;3.87;;;0.30;99.90;;;;;;6152412;23;20498;-93
2021/01/29 05:40:14;;;;;;;5.43;3.50;;;0.20;99.90;;;;;;6197312;23;20188;-93
2021/01/29 05:43:21;;;;;;;7.07;3.77;;;0.30;99.90;;;;;;6197062;23;20156;-92
2021/01/29 05:46:05;;;;;;;6.40;3.63;;;0.20;99.90;;;;;;6049823;23;20197;-92
2021/01/29 05:48:40;;;;;;;6.97;3.77;;;0.10;99.90;;;;;;6185228;23;20226;-93
2021/01/29 05:51:29;;;;;;;6.30;3.77;;;0.20;99.90;;;;;;6197211;23;20148;-93
2021/01/29 05:54:15;;;;;;;7.63;3.90;;;0.10;99.90;;;;;;6197411;23;20156;-92
2021/01/29 05:57:18;;;;;;;7.00;4.20;;;0.10;99.90;;;;;;6198172;23;20153;-93
2021/01/29 06:00:10;;;;;;;7.53;3.83;;;0.10;99.90;;;;;;6198069;23;20207;-93
2021/01/29 06:02:54;;;;;;;9.90;3.93;;;0.10;99.90;;;;;;6130290;23;20586;-92
2021/01/29 06:05:46;;;;;;;7.17;3.93;;;0.10;99.90;;;;;;6197333;23;20161;-93
2021/01/29 06:08:16;;;;;;;7.60;4.03;;;0.10;99.90;;;;;;6197712;23;20180;-92
2021/01/29 06:10:55;;;;;;;6.13;4.00;;;0.00;99.90;;;;;;6197797;23;20161;-93
2021/01/29 06:13:42;;;;;;;7.53;3.80;;;0.00;99.90;;;;;;6197378;23;20178;-93
2021/01/29 06:16:46;;;;;;;7.87;4.47;;;0.00;99.90;;;;;;6197790;23;20187;-93
2021/01/29 06:19:44;;;;;;;7.20;3.70;;;0.10;99.90;;;;;;6197956;23;20184;-93
2021/01/29 06:22:29;;;;;;;5.17;3.87;;;0.00;99.90;;;;;;6197958;23;20157;-93
2021/01/29 06:25:06;;;;;;;9.90;4.60;;;0.00;99.90;;;;;;6196834;23;20151;-92
2021/01/29 06:28:01;;;;;;;7.67;3.83;;;0.00;99.90;;;;;;6196607;23;20152;-94
2021/01/29 06:30:45;;;;;;;6.93;4.20;;;-0.10;99.90;;;;;;6195929;23;20180;-93
2021/01/29 06:33:23;;;;;;;8.73;4.53;;;0.00;99.90;;;;;;6195926;23;20145;-93
2021/01/29 06:36:10;;;;;;;7.27;4.57;;;-0.10;99.90;;;;;;6194482;23;20153;-93
2021/01/29 06:38:42;;;;;;;8.03;4.33;;;-0.10;99.90;;;;;;6195115;23;20212;-93
2021/01/29 06:41:32;;;;;;;10.77;4.90;;;-0.20;99.90;;;;;;6194442;23;20227;-94
2021/01/29 06:44:08;;;;;;;6.83;4.57;;;-0.20;99.90;;;;;;6195617;23;20157;-92
2021/01/29 06:46:51;;;;;;;10.17;4.90;;;-0.20;99.90;;;;;;6198554;23;20148;-95
2021/01/29 06:49:42;;;;;;;11.93;5.23;;;-0.20;99.90;;;;;;6198573;23;20195;-95
2021/01/29 06:52:43;;;;;;;10.43;5.10;;;-0.20;99.90;;;;;;6198722;23;20162;-93
2021/01/29 06:55:34;;;;;;;11.90;5.17;;;-0.20;99.90;;;;;;6198105;23;20614;-91
2021/01/29 06:58:15;;;;;;;7.03;4.40;;;-0.20;99.90;;;;;;6196248;23;20204;-93
2021/01/29 07:01:20;;;;;;;8.17;5.10;;;-0.20;99.90;;;;;;6198195;23;20159;-93
2021/01/29 07:04:23;;;;;;;12.23;5.17;;;-0.20;99.90;;;;;;6197602;23;20181;-95
2021/01/29 07:06:53;;;;;;;7.43;5.37;;;-0.30;99.90;;;;;;6198243;23;20454;-93
2021/01/29 07:09:47;;;;;;;11.03;5.33;;;-0.30;99.90;;;;;;6198508;23;20192;-94
2021/01/29 07:12:40;;;;;;;9.23;5.00;;;-0.30;99.90;;;;;;6190990;23;20181;-92
2021/01/29 07:15:27;;;;;;;8.70;5.10;;;-0.30;99.90;;;;;;6197672;23;20175;-93
2021/01/29 07:18:04;;;;;;;12.97;5.77;;;-0.30;99.90;;;;;;6197435;23;20176;-92
2021/01/29 07:20:29;;;;;;;8.30;6.07;;;-0.30;99.90;;;;;;6197510;23;20178;-93
2021/01/29 07:23:28;;;;;;;11.63;5.83;;;-0.30;99.90;;;;;;6197472;23;20232;-92
2021/01/29 07:26:41;;;;;;;9.80;6.00;;;-0.30;99.90;;;;;;6196969;23;20153;-93
2021/01/29 07:29:38;;;;;;;15.73;7.77;;;-0.30;99.90;;;;;;6197522;23;20189;-91
2021/01/29 07:32:29;;;;;;;11.33;5.83;;;-0.30;99.90;;;;;;6197556;23;20174;-92
2021/01/29 07:35:18;;;;;;;14.43;7.73;;;-0.30;99.90;;;;;;6198602;23;20179;-93
2021/01/29 07:37:57;;;;;;;15.47;7.43;;;-0.30;99.90;;;;;;6195795;23;20151;-93
2021/01/29 07:44:06;;;;;;;11.03;7.13;;;-0.30;99.90;;;;;;6223780;23;20164;-93
2021/01/29 07:46:59;;;;;;;11.97;7.00;;;-0.40;99.90;;;;;;6197428;23;20154;-91
2021/01/29 07:49:48;;;;;;;12.70;7.17;;;-0.40;99.90;;;;;;6198373;23;20510;-92
2021/01/29 07:52:38;;;;;;;16.07;7.10;;;-0.30;99.90;;;;;;6197485;23;20613;-92
2021/01/29 07:55:22;;;;;;;11.33;6.90;;;-0.30;99.90;;;;;;6197113;23;20239;-93
2021/01/29 08:01:16;;;;;;;10.37;7.10;;;-0.30;99.90;;;;;;6235019;23;20140;-93
2021/01/29 08:04:04;;;;;;;11.47;7.10;;;-0.20;99.90;;;;;;6198585;23;20147;-94
2021/01/29 08:06:52;;;;;;;10.63;7.60;;;-0.20;99.90;;;;;;6197510;23;20243;-92
2021/01/29 08:09:30;;;;;;;11.70;7.47;;;-0.20;99.90;;;;;;6198035;23;20190;-93
2021/01/29 08:12:18;;;;;;;8.50;6.17;;;-0.10;99.90;;;;;;6197149;23;20151;-93
2021/01/29 08:14:57;;;;;;;12.73;6.83;;;-0.10;99.90;;;;;;6196943;23;20228;-93
2021/01/29 08:17:29;;;;;;;9.80;7.07;;;-0.10;99.90;;;;;;6197050;23;20167;-93
2021/01/29 08:20:35;;;;;;;13.27;7.00;;;0.00;99.90;;;;;;6197874;23;20156;-92
2021/01/29 08:23:09;;;;;;;9.37;5.90;;;-0.10;99.90;;;;;;6198444;23;20156;-93
2021/01/29 08:25:58;;;;;;;11.27;6.70;;;0.00;99.90;;;;;;6196128;23;20151;-94
2021/01/29 08:28:39;;;;;;;11.27;6.77;;;-0.10;99.90;;;;;;6197665;23;20181;-93
2021/01/29 08:32:01;;;;;;;12.07;6.77;;;-0.10;99.90;;;;;;6197012;23;20156;-92
2021/01/29 08:35:03;;;;;;;11.83;7.00;;;-0.10;99.90;;;;;;6050113;23;20164;-92
2021/01/29 08:38:13;;;;;;;10.00;6.87;;;-0.10;99.90;;;;;;6050681;23;20199;-93
2021/01/29 08:41:21;;;;;;;11.80;7.27;;;0.00;99.90;;;;;;6049897;23;20171;-94
2021/01/29 08:43:49;;;;;;;14.77;7.57;;;0.00;99.90;;;;;;6102206;23;20160;-91
2021/01/29 08:46:33;;;;;;;11.20;7.40;;;0.00;99.90;;;;;;6197567;23;20484;-93
2021/01/29 08:49:44;;;;;;;12.20;6.20;;;0.10;99.90;;;;;;6196153;23;20183;-93
2021/01/29 08:52:32;;;;;;;11.00;7.00;;;0.10;99.90;;;;;;6127631;23;20163;-94
2021/01/29 08:55:25;;;;;;;13.07;6.40;;;0.10;99.90;;;;;;6196867;23;20156;-92
2021/01/29 08:58:11;;;;;;;9.00;6.33;;;0.20;99.90;;;;;;6196758;23;20282;-95
2021/01/29 09:00:40;;;;;;;8.03;6.17;;;0.20;99.90;;;;;;6197239;23;20159;-93
2021/01/29 09:03:51;;;;;;;11.33;5.70;;;0.30;99.90;;;;;;6196814;23;20151;-92
2021/01/29 09:06:28;;;;;;;9.60;5.63;;;0.30;99.90;;;;;;6129541;23;20161;-94
2021/01/29 09:09:06;;;;;;;6.63;5.27;;;0.30;99.90;;;;;;6195952;23;20191;-94
2021/01/29 09:11:31;;;;;;;8.90;4.90;;;0.40;99.90;;;;;;6195969;23;20608;-92
2021/01/29 09:14:00;;;;;;;7.70;5.27;;;0.30;99.90;;;;;;6196510;23;20152;-91
2021/01/29 09:16:36;;;;;;;14.40;5.20;;;0.40;99.90;;;;;;6195593;23;20186;-93
2021/01/29 09:19:05;;;;;;;7.40;4.90;;;0.40;99.90;;;;;;6197151;23;20187;-93
2021/01/29 09:22:02;;;;;;;5.93;4.30;;;0.40;99.90;;;;;;6195774;23;20155;-93
2021/01/29 09:25:09;;;;;;;5.43;4.57;;;0.40;99.90;;;;;;6196388;23;20161;-94
2021/01/29 09:27:49;;;;;;;7.47;4.00;;;0.40;99.90;;;;;;6150709;23;20160;-93
2021/01/29 09:30:29;;;;;;;7.83;3.80;;;0.50;99.90;;;;;;6197040;23;20170;-94
2021/01/29 09:33:33;;;;;;;7.60;3.47;;;0.50;99.90;;;;;;6196413;23;20148;-94
2021/01/29 09:36:14;;;;;;;4.73;3.17;;;0.60;99.90;;;;;;6196637;23;20481;-94
2021/01/29 09:39:02;;;;;;;5.30;3.47;;;0.60;99.90;;;;;;6196197;23;20182;-95
2021/01/29 09:41:36;;;;;;;7.33;3.30;;;0.60;99.90;;;;;;6183931;23;20156;-93
2021/01/29 09:44:26;;;;;;;4.40;3.20;;;0.60;99.90;;;;;;6179377;22;20165;-93
2021/01/29 09:46:56;;;;;;;3.27;2.47;;;0.70;99.90;;;;;;6207512;23;20196;-93
2021/01/29 09:49:28;;;;;;;5.97;2.70;;;0.70;99.90;;;;;;6206414;23;20209;-93
2021/01/29 09:52:00;;;;;;;3.73;2.57;;;0.70;99.90;;;;;;6191932;23;20211;-94
2021/01/29 09:54:44;;;;;;;3.10;2.03;;;0.70;99.90;;;;;;6221185;23;20200;-94
2021/01/29 09:57:22;;;;;;;6.03;2.23;;;0.80;99.90;;;;;;6207169;23;20674;-94
2021/01/29 10:00:18;;;;;;;4.10;2.03;;;0.80;99.90;;;;;;6220997;23;20265;-94
2021/01/29 10:03:08;;;;;;;6.30;2.23;;;0.80;99.90;;;;;;6177494;23;20696;-92
2021/01/29 10:05:39;;;;;;;3.17;1.90;;;0.80;99.90;;;;;;6183601;23;20223;-94
2021/01/29 10:08:16;;;;;;;3.90;1.90;;;0.80;99.90;;;;;;6223312;23;20199;-93
2021/01/29 10:11:02;;;;;;;3.77;1.83;;;0.70;99.90;;;;;;6207335;23;20239;-92
2021/01/29 10:13:38;;;;;;;2.40;1.93;;;0.80;99.90;;;;;;6222764;23;20161;-95
2021/01/29 10:16:15;;;;;;;2.57;2.00;;;0.70;99.90;;;;;;6207706;23;20586;-93
2021/01/29 10:18:49;;;;;;;3.37;1.93;;;0.80;99.90;;;;;;6223045;23;20239;-94
2021/01/29 10:21:26;;;;;;;4.87;2.00;;;0.70;99.90;;;;;;6207065;23;20195;-92
2021/01/29 10:24:08;;;;;;;2.23;1.80;;;0.70;99.90;;;;;;6222772;23;20168;-94
2021/01/29 10:26:47;;;;;;;2.37;1.87;;;0.60;99.90;;;;;;6206948;23;20202;-94
2021/01/29 10:29:17;;;;;;;2.67;2.03;;;0.60;99.90;;;;;;6222184;23;20256;-92
2021/01/29 10:32:05;;;;;;;2.30;1.70;;;0.70;99.90;;;;;;6206992;23;20560;-94
2021/01/29 10:34:39;;;;;;;3.70;1.50;;;0.50;99.90;;;;;;6223238;23;20170;-93
2021/01/29 10:37:15;;;;;;;3.80;1.70;;;0.50;99.90;;;;;;6207328;23;20660;-93
2021/01/29 10:40:13;;;;;;;2.60;1.77;;;0.50;99.90;;;;;;6223004;23;20263;-94
2021/01/29 10:42:49;;;;;;;3.80;1.93;;;0.40;99.90;;;;;;6184155;23;20217;-94
2021/01/29 10:45:19;;;;;;;3.00;1.90;;;0.40;99.90;;;;;;6221461;23;20170;-94
2021/01/29 10:47:59;;;;;;;5.27;1.83;;;0.30;99.90;;;;;;6206831;23;20197;-94
2021/01/29 10:50:41;;;;;;;5.23;2.10;;;0.30;99.90;;;;;;6222854;23;20195;-95
2021/01/29 10:53:23;;;;;;;3.00;2.27;;;0.30;99.90;;;;;;6209257;23;20218;-94
2021/01/29 10:56:14;;;;;;;3.40;2.23;;;0.30;99.90;;;;;;6222432;23;20273;-94
2021/01/29 10:59:21;;;;;;;3.50;2.07;;;0.30;99.90;;;;;;6140637;23;20740;-95
2021/01/29 11:02:05;;;;;;;2.30;1.90;;;0.20;99.90;;;;;;6181427;23;20196;-96
2021/01/29 11:04:39;;;;;;;3.57;2.50;;;0.20;99.90;;;;;;6212481;23;20231;-93
2021/01/29 11:07:29;;;;;;;2.70;2.23;;;0.20;99.90;;;;;;6207665;23;20197;-94
2021/01/29 11:10:08;;;;;;;6.40;2.60;;;0.10;99.90;;;;;;6221776;23;20183;-93
2021/01/29 11:12:50;;;;;;;3.70;2.50;;;0.10;99.90;;;;;;6207722;23;20576;-93
2021/01/29 11:15:46;;;;;;;3.90;2.60;;;0.00;99.90;;;;;;6221981;23;20166;-93
2021/01/29 11:18:42;;;;;;;3.70;2.80;;;0.00;99.90;;;;;;6207810;23;20250;-95
2021/01/29 11:21:23;;;;;;;3.63;2.90;;;-0.10;99.90;;;;;;6203183;22;20618;-93
2021/01/29 11:24:03;;;;;;;3.73;2.73;;;-0.10;99.90;;;;;;6220213;23;20531;-94
2021/01/29 11:27:08;;;;;;;4.83;2.83;;;-0.10;99.90;;;;;;6205455;23;20296;-95
2021/01/29 11:30:08;;;;;;;4.53;2.87;;;-0.10;99.90;;;;;;6221024;23;20230;-93
2021/01/29 11:32:45;;;;;;;4.93;3.30;;;-0.10;99.90;;;;;;6206591;23;20203;-94
2021/01/29 11:35:41;;;;;;;4.80;3.10;;;-0.20;99.90;;;;;;6222971;23;20162;-93
2021/01/29 11:38:45;;;;;;;5.93;3.50;;;-0.20;99.90;;;;;;6208431;23;20196;-94
2021/01/29 11:41:35;;;;;;;4.63;3.40;;;-0.20;99.90;;;;;;6150146;22;20200;-96
2021/01/29 11:44:04;;;;;;;4.87;3.17;;;-0.10;99.90;;;;;;6223416;23;20273;-95
2021/01/29 11:46:48;;;;;;;4.70;3.43;;;-0.10;99.90;;;;;;6207974;23;20201;-95
2021/01/29 11:49:26;;;;;;;4.77;3.70;;;0.00;99.90;;;;;;6225155;23;20277;-95
2021/01/29 11:52:00;;;;;;;4.63;3.33;;;0.00;99.90;;;;;;6209022;23;20195;-94
2021/01/29 11:54:42;;;;;;;4.83;3.50;;;0.00;99.90;;;;;;6223949;23;20159;-92
2021/01/29 11:57:32;;;;;;;5.03;3.20;;;0.00;99.90;;;;;;6206311;23;20206;-92
2021/01/29 12:00:13;;;;;;;6.30;4.07;;;0.00;99.90;;;;;;6218172;23;20168;-95
2021/01/29 12:02:58;;;;;;;4.60;3.30;;;0.00;99.90;;;;;;6210440;23;20206;-95
2021/01/29 12:06:15;;;;;;;6.00;3.57;;;0.00;99.90;;;;;;6218547;23;20184;-95
2021/01/29 12:09:05;;;;;;;5.03;3.87;;;0.00;99.90;;;;;;6145794;23;20199;-94
2021/01/29 12:11:48;;;;;;;5.57;3.87;;;0.00;99.90;;;;;;6208503;22;20211;-96
2021/01/29 12:14:43;;;;;;;6.23;4.27;;;0.00;99.90;;;;;;6220198;23;20190;-94
2021/01/29 12:17:12;;;;;;;6.10;3.90;;;0.00;99.90;;;;;;6208977;23;20221;-95
2021/01/29 12:19:45;;;;;;;5.83;3.63;;;0.00;99.90;;;;;;6218832;23;20195;-95
2021/01/29 12:23:01;;;;;;;4.90;3.20;;;0.00;99.90;;;;;;6208571;23;20210;-93
2021/01/29 12:25:48;;;;;;;5.83;4.17;;;0.00;99.90;;;;;;6190837;23;20172;-95
2021/01/29 12:28:29;;;;;;;4.60;3.67;;;0.00;99.90;;;;;;6207404;23;20227;-96
2021/01/29 12:31:15;;;;;;;6.13;3.97;;;-0.10;99.90;;;;;;6217910;23;20252;-95
2021/01/29 12:34:00;;;;;;;6.23;3.77;;;-0.10;99.90;;;;;;6207711;23;20196;-93
2021/01/29 12:36:29;;;;;;;5.53;3.70;;;0.00;99.90;;;;;;6216752;23;20165;-94
2021/01/29 12:39:09;;;;;;;6.60;4.10;;;0.00;99.90;;;;;;6206317;23;20287;-92
2021/01/29 12:42:13;;;;;;;6.13;4.00;;;0.00;99.90;;;;;;6217146;23;20587;-95
2021/01/29 12:45:05;;;;;;;5.50;4.23;;;0.00;99.90;;;;;;6176794;23;20188;-95
2021/01/29 12:47:50;;;;;;;6.80;4.20;;;0.10;99.90;;;;;;6208329;23;20295;-94
2021/01/29 12:50:46;;;;;;;4.57;3.70;;;0.10;99.90;;;;;;6215620;23;20192;-96
2021/01/29 12:53:27;;;;;;;5.80;4.03;;;0.10;99.90;;;;;;6207766;23;20253;-93
2021/01/29 12:56:27;;;;;;;7.03;3.97;;;0.10;99.90;;;;;;6218214;23;20157;-95
2021/01/29 12:59:01;;;;;;;5.37;3.83;;;0.10;99.90;;;;;;6207780;23;20226;-94
2021/01/29 13:01:33;;;;;;;6.37;4.00;;;0.00;99.90;;;;;;6218623;23;20193;-94
2021/01/29 13:04:41;;;;;;;5.03;4.00;;;0.00;99.90;;;;;;6208899;23;20199;-95
2021/01/29 13:07:11;;;;;;;5.97;3.60;;;0.00;99.90;;;;;;6085557;23;20291;-96
2021/01/29 13:10:09;;;;;;;4.47;3.37;;;0.00;99.90;;;;;;6180383;23;20238;-95
2021/01/29 13:12:48;;;;;;;4.00;2.90;;;0.00;99.90;;;;;;6207928;23;20243;-94
2021/01/29 13:15:56;;;;;;;4.43;3.10;;;0.10;99.90;;;;;;6219055;23;20591;-94
2021/01/29 13:18:36;;;;;;;3.00;2.53;;;0.10;99.90;;;;;;6208053;23;20291;-94
2021/01/29 13:21:17;;;;;;;4.00;2.40;;;0.00;99.90;;;;;;6217910;23;20175;-94
2021/01/29 13:23:43;;;;;;;3.73;2.97;;;0.00;99.90;;;;;;6209426;23;20196;-95
2021/01/29 13:26:25;;;;;;;4.83;3.03;;;0.00;99.90;;;;;;6218503;23;20166;-96
2021/01/29 13:29:04;;;;;;;4.53;3.17;;;0.00;99.90;;;;;;6209346;23;20205;-95
2021/01/29 13:31:37;;;;;;;3.57;2.53;;;-0.10;99.90;;;;;;6219010;23;20256;-96
2021/01/29 13:34:17;;;;;;;3.83;2.73;;;0.00;99.90;;;;;;6210120;23;20198;-96
2021/01/29 13:37:17;;;;;;;3.23;2.80;;;-0.10;99.90;;;;;;6218399;23;20171;-94
2021/01/29 13:39:45;;;;;;;4.53;2.97;;;0.00;99.90;;;;;;6173542;23;20198;-95
2021/01/29 13:42:11;;;;;;;4.17;3.20;;;0.00;99.90;;;;;;6174438;23;20199;-95
2021/01/29 13:44:43;;;;;;;4.97;3.10;;;-0.10;99.90;;;;;;6218749;23;20208;-95
2021/01/29 13:47:22;;;;;;;4.10;2.60;;;-0.10;99.90;;;;;;6218238;23;20211;-94
2021/01/29 13:49:49;;;;;;;4.83;3.43;;;-0.10;99.90;;;;;;6177165;23;20191;-96
2021/01/29 13:52:25;;;;;;;4.17;3.20;;;-0.10;99.90;;;;;;6204675;23;20162;-96
2021/01/29 13:54:52;;;;;;;5.23;3.50;;;-0.20;99.90;;;;;;6217558;23;20163;-96
2021/01/29 13:57:26;;;;;;;5.97;4.00;;;-0.10;99.90;;;;;;6202216;22;20557;-95
2021/01/29 14:00:19;;;;;;;5.27;4.27;;;-0.20;99.90;;;;;;6217341;23;20190;-95
2021/01/29 14:02:58;;;;;;;4.43;3.50;;;-0.10;99.90;;;;;;6206586;23;20198;-94
2021/01/29 14:05:28;;;;;;;4.17;3.57;;;-0.20;99.90;;;;;;6216623;23;20170;-94
2021/01/29 14:07:56;;;;;;;3.53;3.20;;;-0.20;99.90;;;;;;6205296;22;20580;-92
2021/01/29 14:10:26;;;;;;;4.70;3.80;;;-0.20;99.90;;;;;;6214577;23;20472;-93
2021/01/29 14:13:12;;;;;;;3.97;3.40;;;-0.30;99.90;;;;;;6203839;22;20220;-95
2021/01/29 14:15:48;;;;;;;4.23;3.30;;;-0.30;99.90;;;;;;6216457;23;20200;-94